Tenryu Maru — JD2289 — position and weather

sailwx.info

Track history (hours):
 
Tides and Currents Weather Stations Pressure Air Temp Water Temp Dewpoint Dewpoint Depression Visibility Wind Speed Wind Dir Waves Ship Positions

Tenryu Maru

Last reported at 2017-Nov-24 02:00 UTC. Time now 2017-Nov-24 02:18 UTC.
Position N 35°27' E 139°43'.

Length 34 m; draft 3.8 m.

Type: Tug. MMSI: 431101149.

Date/timePositionNaut miles runAvg speedWind from/ knotsBaromVisibWave heightAir tempDewpointWater temp
2017-Nov-24 02:00N 35°27' E 139°43'4 7.2
2017-Nov-24 01:31N 35°29' E 139°47'0 0.0
2017-Nov-24 01:00N 35°29' E 139°47'1 1.3
2017-Nov-24 00:28N 35°28' E 139°47'1 1.8
2017-Nov-24 00:01N 35°28' E 139°46'2 3.1
2017-Nov-23 23:31N 35°29' E 139°45'0 0.0
2017-Nov-23 23:01N 35°29' E 139°45'1 2.5
2017-Nov-23 22:31N 35°29' E 139°47'0 0.2
2017-Nov-23 22:01N 35°29' E 139°47'2 4.6
2017-Nov-23 21:31N 35°28' E 139°44'4 8.8
2017-Nov-23 21:01N 35°27' E 139°39'0 0.0
2017-Nov-23 20:31N 35°27' E 139°39'0 0.0
2017-Nov-23 20:01N 35°27' E 139°39'0 0.0
2017-Nov-23 19:30N 35°27' E 139°39'0 0.0
2017-Nov-23 19:01N 35°27' E 139°39'0 0.0
2017-Nov-23 18:30N 35°27' E 139°39'0 0.0
2017-Nov-23 18:01N 35°27' E 139°39'0 0.0
2017-Nov-23 17:30N 35°27' E 139°39'0 0.0
2017-Nov-23 17:01N 35°27' E 139°39'0 0.0
2017-Nov-23 16:31N 35°27' E 139°39'0 0.0
2017-Nov-23 16:01N 35°27' E 139°39'0 0.0
2017-Nov-23 15:30N 35°27' E 139°39'0 0.0
2017-Nov-23 15:01N 35°27' E 139°39'0 0.0
2017-Nov-23 14:31N 35°27' E 139°39'0 0.0
2017-Nov-23 14:01N 35°27' E 139°39'0 0.0
2017-Nov-23 13:31N 35°27' E 139°39'0 0.0
2017-Nov-23 13:01N 35°27' E 139°39'0 0.0
2017-Nov-23 12:31N 35°27' E 139°39'0 0.0
2017-Nov-23 12:01N 35°27' E 139°39'0 0.0
2017-Nov-23 11:30N 35°27' E 139°39'0 0.0
2017-Nov-23 11:00N 35°27' E 139°39'0 0.0
2017-Nov-23 10:31N 35°27' E 139°39'0 0.0
2017-Nov-23 10:00N 35°27' E 139°39'0 0.0
2017-Nov-23 09:31N 35°27' E 139°39'0 0.0
2017-Nov-23 09:01N 35°27' E 139°39'0 0.0
2017-Nov-23 08:31N 35°27' E 139°39'0 0.0
2017-Nov-23 08:01N 35°27' E 139°39'0 0.0
2017-Nov-23 07:31N 35°27' E 139°39'0 0.0
2017-Nov-23 07:01N 35°27' E 139°39'0 0.0
2017-Nov-23 06:31N 35°27' E 139°39'0 0.0
2017-Nov-23 06:01N 35°27' E 139°39'0 0.0
2017-Nov-23 05:30N 35°27' E 139°39'2 4.2
2017-Nov-23 05:01N 35°26' E 139°42'3 5.4
2017-Nov-23 04:31N 35°24' E 139°40'0 0.8
2017-Nov-23 04:00N 35°24' E 139°41'0 0.0
2017-Nov-23 03:30N 35°24' E 139°41'2 4.5
2017-Nov-23 03:00N 35°26' E 139°42'2 3.6
2017-Nov-23 02:30N 35°27' E 139°40'0 0.6
2017-Nov-23 02:00N 35°28' E 139°41'1 1.1
2017-Nov-23 01:30N 35°28' E 139°41'1 1.0
2017-Nov-23 01:01N 35°28' E 139°41'3 5.4
2017-Nov-23 00:30N 35°27' E 139°44'3 6.5
2017-Nov-23 00:00N 35°27' E 139°40'1 1.7
2017-Nov-22 23:30N 35°27' E 139°39'0 0.0
2017-Nov-22 23:00N 35°27' E 139°39'0 0.0
2017-Nov-22 22:30N 35°27' E 139°39'0 0.0
2017-Nov-22 22:00N 35°27' E 139°39'0 0.0
2017-Nov-22 21:30N 35°27' E 139°39'0 0.0
2017-Nov-22 21:00N 35°27' E 139°39'0 0.0
2017-Nov-22 20:30N 35°27' E 139°39'0 0.0
2017-Nov-22 20:00N 35°27' E 139°39'0 0.0
2017-Nov-22 19:30N 35°27' E 139°39'  
2017-Nov-20 00:30N 35°10' E 139°46'4 8.4
2017-Nov-20 00:00N 35°14' E 139°45'713.2
2017-Nov-19 23:30N 35°20' E 139°42'612.7
2017-Nov-19 23:00N 35°26' E 139°42'2 4.3
2017-Nov-19 22:30N 35°27' E 139°39'0 0.0
2017-Nov-19 22:00N 35°27' E 139°39'0 0.0
2017-Nov-19 21:30N 35°27' E 139°39'0 0.0
2017-Nov-19 21:00N 35°27' E 139°39'0 0.0
2017-Nov-19 20:30N 35°27' E 139°39'0 0.0
2017-Nov-19 20:00N 35°27' E 139°39'0 0.0
2017-Nov-19 19:30N 35°27' E 139°39'0 0.0
2017-Nov-19 19:00N 35°27' E 139°39'0 0.0
2017-Nov-19 18:30N 35°27' E 139°39'0 0.0
2017-Nov-19 18:01N 35°27' E 139°39'0 0.0
2017-Nov-19 17:30N 35°27' E 139°39'0 0.0
2017-Nov-19 17:00N 35°27' E 139°39'0 0.0
2017-Nov-19 16:30N 35°27' E 139°39'0 0.0
2017-Nov-19 16:00N 35°27' E 139°39'0 0.0
2017-Nov-19 15:30N 35°27' E 139°39'0 0.0
2017-Nov-19 15:00N 35°27' E 139°39'0 0.0
2017-Nov-19 14:30N 35°27' E 139°39'0 0.0
2017-Nov-19 14:00N 35°27' E 139°39'0 0.0
2017-Nov-19 13:31N 35°27' E 139°39'0 0.0
2017-Nov-19 13:00N 35°27' E 139°39'0 0.0
2017-Nov-19 12:30N 35°27' E 139°39'0 0.0
2017-Nov-19 12:00N 35°27' E 139°39'0 0.0
2017-Nov-19 11:30N 35°27' E 139°39'0 0.0
2017-Nov-19 11:01N 35°27' E 139°39'0 0.0
2017-Nov-19 10:30N 35°27' E 139°39'0 0.0
2017-Nov-19 10:00N 35°27' E 139°39'0 0.0
2017-Nov-19 09:31N 35°27' E 139°39'0 0.0
2017-Nov-19 09:01N 35°27' E 139°39'0 0.0
2017-Nov-19 08:30N 35°27' E 139°39'0 0.0
2017-Nov-19 08:01N 35°27' E 139°39'0 0.0
2017-Nov-19 07:30N 35°27' E 139°39'0 0.0
2017-Nov-19 07:01N 35°27' E 139°39'0 0.0
2017-Nov-19 06:30N 35°27' E 139°39'2 3.7
2017-Nov-19 06:00N 35°27' E 139°41'510.0
2017-Nov-19 05:31N 35°29' E 139°47'0 0.3
2017-Nov-19 05:00N 35°29' E 139°47'4 7.7
2017-Nov-19 04:31N 35°27' E 139°43'3 5.9
2017-Nov-19 04:00N 35°27' E 139°39'0 0.0
2017-Nov-19 03:30N 35°27' E 139°39'0 0.0
2017-Nov-19 03:00N 35°27' E 139°39'1 1.5
2017-Nov-19 02:30N 35°27' E 139°40'5 9.2
2017-Nov-19 02:00N 35°30' E 139°44'0 1.0
2017-Nov-19 01:30N 35°30' E 139°45'0 0.5
2017-Nov-19 01:00N 35°30' E 139°45'1 1.6
2017-Nov-19 00:30N 35°30' E 139°46'0 0.3
2017-Nov-19 00:00N 35°30' E 139°46'0 0.0
2017-Nov-18 23:30N 35°30' E 139°46'3 6.7
2017-Nov-18 23:00N 35°29' E 139°42'2 3.8
2017-Nov-18 22:30N 35°27' E 139°41'0 0.3
2017-Nov-18 22:00N 35°27' E 139°41'1 2.9
2017-Nov-18 21:30N 35°26' E 139°42'1 2.0
2017-Nov-18 21:00N 35°27' E 139°41'0 0.3
2017-Nov-18 20:30N 35°26' E 139°41'2 3.1
2017-Nov-18 20:00N 35°27' E 139°39'0 0.3
2017-Nov-18 19:30N 35°27' E 139°39'0 0.0
2017-Nov-18 19:00N 35°27' E 139°39'0 0.0
2017-Nov-18 18:30N 35°27' E 139°39'0 0.0
2017-Nov-18 18:00N 35°27' E 139°39'0 0.0
2017-Nov-18 17:30N 35°27' E 139°39'0 0.0
2017-Nov-18 17:00N 35°27' E 139°39'0 0.0
2017-Nov-18 16:30N 35°27' E 139°39'0 0.0
2017-Nov-18 16:00N 35°27' E 139°39'0 0.0
2017-Nov-18 15:30N 35°27' E 139°39'0 0.0
2017-Nov-18 15:00N 35°27' E 139°39'0 0.0
2017-Nov-18 14:30N 35°27' E 139°39'0 0.0
2017-Nov-18 14:00N 35°27' E 139°39'0 0.0
2017-Nov-18 13:30N 35°27' E 139°39'0 0.0
2017-Nov-18 13:00N 35°27' E 139°39'0 0.0
2017-Nov-18 12:30N 35°27' E 139°39'0 0.0
2017-Nov-18 12:00N 35°27' E 139°39'0 0.0
2017-Nov-18 11:30N 35°27' E 139°39'0 0.0
2017-Nov-18 11:00N 35°27' E 139°39'0 0.0
2017-Nov-18 10:30N 35°27' E 139°39'0 0.0
2017-Nov-18 10:00N 35°27' E 139°39'0 0.0
2017-Nov-18 09:30N 35°27' E 139°39'0 0.0
2017-Nov-18 09:00N 35°27' E 139°39'0 0.0
2017-Nov-18 08:30N 35°27' E 139°39'0 0.0
2017-Nov-18 08:00N 35°27' E 139°39'0 0.0
2017-Nov-18 07:30N 35°27' E 139°39'0 0.0
2017-Nov-18 07:00N 35°27' E 139°39'0 1.0
2017-Nov-18 06:30N 35°27' E 139°40'1 2.9
2017-Nov-18 06:00N 35°28' E 139°39'3 6.6
2017-Nov-18 05:31N 35°26' E 139°42'1 1.9
2017-Nov-18 05:00N 35°27' E 139°42'0 0.0
2017-Nov-18 04:30N 35°27' E 139°42'0 0.7
2017-Nov-18 04:00N 35°28' E 139°42'3 6.8
2017-Nov-18 03:30N 35°29' E 139°46'1 0.9
2017-Nov-18 02:36N 35°29' E 139°47'0 0.6
2017-Nov-18 02:09N 35°29' E 139°47'1 3.6
2017-Nov-18 02:00N 35°28' E 139°46'1 2.9
2017-Nov-18 01:30N 35°27' E 139°46'2 4.0
2017-Nov-18 01:00N 35°29' E 139°46'0 0.0
2017-Nov-18 00:30N 35°29' E 139°46'2 3.4
2017-Nov-18 00:00N 35°31' E 139°46'1 2.7
2017-Nov-17 23:30N 35°30' E 139°45'3 6.8
2017-Nov-17 23:00N 35°28' E 139°41'2 4.6
2017-Nov-17 22:30N 35°27' E 139°39'0 0.0
2017-Nov-17 22:00N 35°27' E 139°39'0 0.0
2017-Nov-17 21:30N 35°27' E 139°39'0 0.0
2017-Nov-17 21:00N 35°27' E 139°39'0 0.0
2017-Nov-17 20:30N 35°27' E 139°39'0 0.0
2017-Nov-17 20:00N 35°27' E 139°39'0 0.0
2017-Nov-17 19:31N 35°27' E 139°39'0 0.0
2017-Nov-17 19:00N 35°27' E 139°39'0 0.0
2017-Nov-17 18:30N 35°27' E 139°39'0 0.0
2017-Nov-17 18:00N 35°27' E 139°39'0 0.0
2017-Nov-17 17:31N 35°27' E 139°39'0 0.0
2017-Nov-17 17:01N 35°27' E 139°39'0 0.0
2017-Nov-17 16:30N 35°27' E 139°39'0 0.0
2017-Nov-17 16:00N 35°27' E 139°39'0 0.0
2017-Nov-17 15:30N 35°27' E 139°39'0 0.0
2017-Nov-17 15:00N 35°27' E 139°39'0 0.0
2017-Nov-17 14:30N 35°27' E 139°39'0 0.0
2017-Nov-17 14:00N 35°27' E 139°39'0 0.0
2017-Nov-17 13:30N 35°27' E 139°39'0 0.0
2017-Nov-17 13:00N 35°27' E 139°39'0 0.0
2017-Nov-17 12:30N 35°27' E 139°39'0 0.0
2017-Nov-17 12:00N 35°27' E 139°39'0 0.0
2017-Nov-17 11:30N 35°27' E 139°39'0 0.0
2017-Nov-17 11:00N 35°27' E 139°39'0 0.0
2017-Nov-17 10:30N 35°27' E 139°39'0 0.0
2017-Nov-17 10:00N 35°27' E 139°39'0 0.0
2017-Nov-17 09:30N 35°27' E 139°39'0 0.0
2017-Nov-17 09:00N 35°27' E 139°39'0 0.0
2017-Nov-17 08:30N 35°27' E 139°39'0 0.0
2017-Nov-17 08:00N 35°27' E 139°39'0 0.0
2017-Nov-17 07:30N 35°27' E 139°39'0 0.0
2017-Nov-17 07:00N 35°27' E 139°39'2 3.7
2017-Nov-17 06:30N 35°25' E 139°41'1 1.1
2017-Nov-17 06:00N 35°25' E 139°41'2 3.6
2017-Nov-17 05:30N 35°27' E 139°41'1 2.7
2017-Nov-17 05:00N 35°27' E 139°39'0 0.0
2017-Nov-17 04:30N 35°27' E 139°39'0 0.0
2017-Nov-17 04:00N 35°27' E 139°39'0 0.0
2017-Nov-17 03:31N 35°27' E 139°39'0 0.0
2017-Nov-17 03:00N 35°27' E 139°39'0 0.0
2017-Nov-17 02:30N 35°27' E 139°39'4 7.1
2017-Nov-17 02:00N 35°29' E 139°42'4 6.9
2017-Nov-17 01:30N 35°31' E 139°46'0 0.0
2017-Nov-17 01:00N 35°31' E 139°46'2 3.3
2017-Nov-17 00:30N 35°30' E 139°47'3 6.3
2017-Nov-17 00:00N 35°27' E 139°47'3 5.4
2017-Nov-16 23:30N 35°27' E 139°43'2 4.2
2017-Nov-16 23:00N 35°29' E 139°43'0 0.2
2017-Nov-16 22:31N 35°29' E 139°43'2 3.2
2017-Nov-16 22:00N 35°28' E 139°42'3 5.5
2017-Nov-16 21:30N 35°27' E 139°46'0 0.5
2017-Nov-16 21:01N 35°27' E 139°46'3 5.9
2017-Nov-16 20:31N 35°27' E 139°42'3 5.4
2017-Nov-16 20:01N 35°27' E 139°39'0 0.0
2017-Nov-16 19:31N 35°27' E 139°39'0 0.0
2017-Nov-16 19:01N 35°27' E 139°39'0 0.0
2017-Nov-16 18:31N 35°27' E 139°39'0 0.0
2017-Nov-16 18:01N 35°27' E 139°39'0 0.0
2017-Nov-16 17:31N 35°27' E 139°39'0 0.0
2017-Nov-16 17:01N 35°27' E 139°39'0 0.0
2017-Nov-16 16:31N 35°27' E 139°39'0 0.0
2017-Nov-16 16:01N 35°27' E 139°39'0 0.0
2017-Nov-16 15:31N 35°27' E 139°39'0 0.0
2017-Nov-16 15:01N 35°27' E 139°39'0 0.0
2017-Nov-16 14:31N 35°27' E 139°39'0 0.0
2017-Nov-16 14:01N 35°27' E 139°39'0 0.0
2017-Nov-16 13:31N 35°27' E 139°39'0 0.0
2017-Nov-16 13:00N 35°27' E 139°39'0 0.0
2017-Nov-16 12:31N 35°27' E 139°39'0 0.0
2017-Nov-16 12:01N 35°27' E 139°39'0 0.0
2017-Nov-16 11:31N 35°27' E 139°39'0 0.0
2017-Nov-16 11:01N 35°27' E 139°39'0 0.0
2017-Nov-16 10:31N 35°27' E 139°39'0 0.0
2017-Nov-16 10:01N 35°27' E 139°39'0 0.2
2017-Nov-16 09:31N 35°27' E 139°39'1 3.0
2017-Nov-16 09:01N 35°26' E 139°41'2 3.4
2017-Nov-16 08:31N 35°26' E 139°43'1 1.7
2017-Nov-16 08:01N 35°25' E 139°43'1 2.9
2017-Nov-16 07:31N 35°26' E 139°42'0 0.0
2017-Nov-16 07:01N 35°26' E 139°42'0 0.0
2017-Nov-16 06:31N 35°26' E 139°42'0 0.0
2017-Nov-16 06:00N 35°26' E 139°42'1 1.8
2017-Nov-16 05:31N 35°27' E 139°41'0 0.0
2017-Nov-16 05:01N 35°27' E 139°41'2 3.6
2017-Nov-16 04:31N 35°26' E 139°43'1 1.1
2017-Nov-16 04:01N 35°25' E 139°43'3 6.8
2017-Nov-16 03:31N 35°27' E 139°39'0 0.0
2017-Nov-16 03:01N 35°27' E 139°39'0 0.0
2017-Nov-16 02:31N 35°27' E 139°39'2 3.0
2017-Nov-16 02:01N 35°28' E 139°39'0 0.7
2017-Nov-16 01:31N 35°28' E 139°40'2 4.4
2017-Nov-16 01:00N 35°27' E 139°42'2 3.9
2017-Nov-16 00:31N 35°25' E 139°43'3 6.4
2017-Nov-16 00:01N 35°27' E 139°40'1 1.8
2017-Nov-15 23:31N 35°27' E 139°39'0 0.0
2017-Nov-15 23:01N 35°27' E 139°39'0 0.0
2017-Nov-15 22:31N 35°27' E 139°39'0 0.0
2017-Nov-15 22:01N 35°27' E 139°39'0 0.0
2017-Nov-15 21:31N 35°27' E 139°39'0 0.0
2017-Nov-15 21:01N 35°27' E 139°39'0 0.0
2017-Nov-15 20:31N 35°27' E 139°39'0 0.0
2017-Nov-15 20:01N 35°27' E 139°39'0 0.0
2017-Nov-15 19:31N 35°27' E 139°39'0 0.0
2017-Nov-15 19:01N 35°27' E 139°39'0 0.0
2017-Nov-15 18:31N 35°27' E 139°39'0 0.0
2017-Nov-15 18:01N 35°27' E 139°39'0 0.0
2017-Nov-15 17:30N 35°27' E 139°39'0 0.0
2017-Nov-15 17:01N 35°27' E 139°39'0 0.0
2017-Nov-15 16:31N 35°27' E 139°39'0 0.0
2017-Nov-15 16:01N 35°27' E 139°39'0 0.0
2017-Nov-15 15:31N 35°27' E 139°39'0 0.0
2017-Nov-15 15:01N 35°27' E 139°39'0 0.0
2017-Nov-15 14:31N 35°27' E 139°39'0 0.0
2017-Nov-15 14:01N 35°27' E 139°39'0 0.0
2017-Nov-15 13:31N 35°27' E 139°39'0 0.0
2017-Nov-15 13:01N 35°27' E 139°39'0 0.0
2017-Nov-15 12:31N 35°27' E 139°39'0 0.0
2017-Nov-15 12:00N 35°27' E 139°39'0 0.0
2017-Nov-15 11:31N 35°27' E 139°39'0 0.0
2017-Nov-15 11:00N 35°27' E 139°39'0 0.0
2017-Nov-15 10:31N 35°27' E 139°39'0 0.0
2017-Nov-15 10:01N 35°27' E 139°39'0 0.0
2017-Nov-15 09:30N 35°27' E 139°39'0 0.0
2017-Nov-15 09:01N 35°27' E 139°39'0 0.0
2017-Nov-15 08:31N 35°27' E 139°39'0 0.0
2017-Nov-15 08:01N 35°27' E 139°39'0 0.0
2017-Nov-15 07:31N 35°27' E 139°39'0 0.0
2017-Nov-15 07:00N 35°27' E 139°39'0 0.0
2017-Nov-15 06:31N 35°27' E 139°39'0 0.0
2017-Nov-15 06:01N 35°27' E 139°39'0 0.0
2017-Nov-15 05:31N 35°27' E 139°39'0 0.0
2017-Nov-15 05:01N 35°27' E 139°39'0 0.0
2017-Nov-15 04:31N 35°27' E 139°39'0 0.0
2017-Nov-15 04:01N 35°27' E 139°39'0 0.0
2017-Nov-15 03:30N 35°27' E 139°39'0 0.0
2017-Nov-15 03:01N 35°27' E 139°39'0 0.0
2017-Nov-15 02:31N 35°27' E 139°39'0 0.0
2017-Nov-15 02:01N 35°27' E 139°39'0 0.0
2017-Nov-15 01:30N 35°27' E 139°39'0 0.0
2017-Nov-15 01:01N 35°27' E 139°39'0 0.0
2017-Nov-15 00:31N 35°27' E 139°39'0 0.0
2017-Nov-15 00:01N 35°27' E 139°39'1 2.3
2017-Nov-14 23:31N 35°27' E 139°41'1 1.4
2017-Nov-14 23:01N 35°27' E 139°41'1 2.9
2017-Nov-14 22:31N 35°26' E 139°43'2 4.1
2017-Nov-14 22:00N 35°26' E 139°45'4 7.9
2017-Nov-14 21:31N 35°28' E 139°41'0 0.0
2017-Nov-14 21:01N 35°28' E 139°41'0 0.6
2017-Nov-14 20:31N 35°27' E 139°40'0 0.6
2017-Nov-14 20:01N 35°28' E 139°41'0 0.0
2017-Nov-14 19:30N 35°28' E 139°41'0 0.0
2017-Nov-14 19:01N 35°28' E 139°41'0 0.0
2017-Nov-14 18:31N 35°28' E 139°41'0 0.0
2017-Nov-14 18:01N 35°28' E 139°41'0 0.0
2017-Nov-14 17:31N 35°28' E 139°41'0 0.0
2017-Nov-14 17:00N 35°28' E 139°41'4 7.4
2017-Nov-14 16:30N 35°29' E 139°45'2 3.2
2017-Nov-14 16:00N 35°30' E 139°46'0 0.5
2017-Nov-14 15:22N 35°30' E 139°47'0 0.0
2017-Nov-14 15:00N 35°30' E 139°47'0 0.0
2017-Nov-14 14:25N 35°30' E 139°47'0 0.0
2017-Nov-14 13:53N 35°30' E 139°47'0 0.0
2017-Nov-14 13:30N 35°30' E 139°47'2 4.5
2017-Nov-14 13:00N 35°30' E 139°44'0 0.3
2017-Nov-14 12:30N 35°30' E 139°44'1 1.4
2017-Nov-14 12:00N 35°29' E 139°43'0 0.0
2017-Nov-14 11:30N 35°29' E 139°43'0 0.0
2017-Nov-14 11:00N 35°29' E 139°43'1 1.4
2017-Nov-14 10:30N 35°29' E 139°42'3 5.5
2017-Nov-14 10:00N 35°27' E 139°41'0 0.3
2017-Nov-14 09:30N 35°27' E 139°41'1 3.0
2017-Nov-14 09:00N 35°27' E 139°39'0 0.0
2017-Nov-14 08:30N 35°27' E 139°39'0 0.0
2017-Nov-14 08:00N 35°27' E 139°39'2 4.3
2017-Nov-14 07:31N 35°28' E 139°42'0 0.6
2017-Nov-14 07:00N 35°28' E 139°42'2 4.5
2017-Nov-14 06:30N 35°27' E 139°39'0 0.0
2017-Nov-14 06:00N 35°27' E 139°39'0 0.0
2017-Nov-14 05:30N 35°27' E 139°39'0 0.0
2017-Nov-14 05:00N 35°27' E 139°39'0 0.0
2017-Nov-14 04:30N 35°27' E 139°39'0 0.0
2017-Nov-14 04:00N 35°27' E 139°39'0 0.0
2017-Nov-14 03:30N 35°27' E 139°39'0 0.0
2017-Nov-14 03:00N 35°27' E 139°39'0 0.0
2017-Nov-14 02:30N 35°27' E 139°39'  
Track history (hours):
 
Tides and Currents Weather Stations Pressure Air Temp Water Temp Dewpoint Dewpoint Depression Visibility Wind Speed Wind Dir Waves Ship Positions

Tenryu Maru

Last reported at 2017-Nov-24 02:00 UTC. Time now 2017-Nov-24 02:18 UTC.
Position N 35°27' E 139°43'.

Length 34 m; draft 3.8 m.

Type: Tug. MMSI: 431101149.

Date/timePositionNaut miles runAvg speedWind from/ knotsBaromVisibWave heightAir tempDewpointWater temp
2017-Nov-24 02:00N 35°27' E 139°43'4 7.2
2017-Nov-24 01:31N 35°29' E 139°47'0 0.0
2017-Nov-24 01:00N 35°29' E 139°47'1 1.3
2017-Nov-24 00:28N 35°28' E 139°47'1 1.8
2017-Nov-24 00:01N 35°28' E 139°46'2 3.1
2017-Nov-23 23:31N 35°29' E 139°45'0 0.0
2017-Nov-23 23:01N 35°29' E 139°45'1 2.5
2017-Nov-23 22:31N 35°29' E 139°47'0 0.2
2017-Nov-23 22:01N 35°29' E 139°47'2 4.6
2017-Nov-23 21:31N 35°28' E 139°44'4 8.8
2017-Nov-23 21:01N 35°27' E 139°39'0 0.0
2017-Nov-23 20:31N 35°27' E 139°39'0 0.0
2017-Nov-23 20:01N 35°27' E 139°39'0 0.0
2017-Nov-23 19:30N 35°27' E 139°39'0 0.0
2017-Nov-23 19:01N 35°27' E 139°39'0 0.0
2017-Nov-23 18:30N 35°27' E 139°39'0 0.0
2017-Nov-23 18:01N 35°27' E 139°39'0 0.0
2017-Nov-23 17:30N 35°27' E 139°39'0 0.0
2017-Nov-23 17:01N 35°27' E 139°39'0 0.0
2017-Nov-23 16:31N 35°27' E 139°39'0 0.0
2017-Nov-23 16:01N 35°27' E 139°39'0 0.0
2017-Nov-23 15:30N 35°27' E 139°39'0 0.0
2017-Nov-23 15:01N 35°27' E 139°39'0 0.0
2017-Nov-23 14:31N 35°27' E 139°39'0 0.0
2017-Nov-23 14:01N 35°27' E 139°39'0 0.0
2017-Nov-23 13:31N 35°27' E 139°39'0 0.0
2017-Nov-23 13:01N 35°27' E 139°39'0 0.0
2017-Nov-23 12:31N 35°27' E 139°39'0 0.0
2017-Nov-23 12:01N 35°27' E 139°39'0 0.0
2017-Nov-23 11:30N 35°27' E 139°39'0 0.0
2017-Nov-23 11:00N 35°27' E 139°39'0 0.0
2017-Nov-23 10:31N 35°27' E 139°39'0 0.0
2017-Nov-23 10:00N 35°27' E 139°39'0 0.0
2017-Nov-23 09:31N 35°27' E 139°39'0 0.0
2017-Nov-23 09:01N 35°27' E 139°39'0 0.0
2017-Nov-23 08:31N 35°27' E 139°39'0 0.0
2017-Nov-23 08:01N 35°27' E 139°39'0 0.0
2017-Nov-23 07:31N 35°27' E 139°39'0 0.0
2017-Nov-23 07:01N 35°27' E 139°39'0 0.0
2017-Nov-23 06:31N 35°27' E 139°39'0 0.0
2017-Nov-23 06:01N 35°27' E 139°39'0 0.0
2017-Nov-23 05:30N 35°27' E 139°39'2 4.2
2017-Nov-23 05:01N 35°26' E 139°42'3 5.4
2017-Nov-23 04:31N 35°24' E 139°40'0 0.8
2017-Nov-23 04:00N 35°24' E 139°41'0 0.0
2017-Nov-23 03:30N 35°24' E 139°41'2 4.5
2017-Nov-23 03:00N 35°26' E 139°42'2 3.6
2017-Nov-23 02:30N 35°27' E 139°40'0 0.6
2017-Nov-23 02:00N 35°28' E 139°41'1 1.1
2017-Nov-23 01:30N 35°28' E 139°41'1 1.0
2017-Nov-23 01:01N 35°28' E 139°41'3 5.4
2017-Nov-23 00:30N 35°27' E 139°44'3 6.5
2017-Nov-23 00:00N 35°27' E 139°40'1 1.7
2017-Nov-22 23:30N 35°27' E 139°39'0 0.0
2017-Nov-22 23:00N 35°27' E 139°39'0 0.0
2017-Nov-22 22:30N 35°27' E 139°39'0 0.0
2017-Nov-22 22:00N 35°27' E 139°39'0 0.0
2017-Nov-22 21:30N 35°27' E 139°39'0 0.0
2017-Nov-22 21:00N 35°27' E 139°39'0 0.0
2017-Nov-22 20:30N 35°27' E 139°39'0 0.0
2017-Nov-22 20:00N 35°27' E 139°39'0 0.0
2017-Nov-22 19:30N 35°27' E 139°39'  
2017-Nov-20 00:30N 35°10' E 139°46'4 8.4
2017-Nov-20 00:00N 35°14' E 139°45'713.2
2017-Nov-19 23:30N 35°20' E 139°42'612.7
2017-Nov-19 23:00N 35°26' E 139°42'2 4.3
2017-Nov-19 22:30N 35°27' E 139°39'0 0.0
2017-Nov-19 22:00N 35°27' E 139°39'0 0.0
2017-Nov-19 21:30N 35°27' E 139°39'0 0.0
2017-Nov-19 21:00N 35°27' E 139°39'0 0.0
2017-Nov-19 20:30N 35°27' E 139°39'0 0.0
2017-Nov-19 20:00N 35°27' E 139°39'0 0.0
2017-Nov-19 19:30N 35°27' E 139°39'0 0.0
2017-Nov-19 19:00N 35°27' E 139°39'0 0.0
2017-Nov-19 18:30N 35°27' E 139°39'0 0.0
2017-Nov-19 18:01N 35°27' E 139°39'0 0.0
2017-Nov-19 17:30N 35°27' E 139°39'0 0.0
2017-Nov-19 17:00N 35°27' E 139°39'0 0.0
2017-Nov-19 16:30N 35°27' E 139°39'0 0.0
2017-Nov-19 16:00N 35°27' E 139°39'0 0.0
2017-Nov-19 15:30N 35°27' E 139°39'0 0.0
2017-Nov-19 15:00N 35°27' E 139°39'0 0.0
2017-Nov-19 14:30N 35°27' E 139°39'0 0.0
2017-Nov-19 14:00N 35°27' E 139°39'0 0.0
2017-Nov-19 13:31N 35°27' E 139°39'0 0.0
2017-Nov-19 13:00N 35°27' E 139°39'0 0.0
2017-Nov-19 12:30N 35°27' E 139°39'0 0.0
2017-Nov-19 12:00N 35°27' E 139°39'0 0.0
2017-Nov-19 11:30N 35°27' E 139°39'0 0.0
2017-Nov-19 11:01N 35°27' E 139°39'0 0.0
2017-Nov-19 10:30N 35°27' E 139°39'0 0.0
2017-Nov-19 10:00N 35°27' E 139°39'0 0.0
2017-Nov-19 09:31N 35°27' E 139°39'0 0.0
2017-Nov-19 09:01N 35°27' E 139°39'0 0.0
2017-Nov-19 08:30N 35°27' E 139°39'0 0.0
2017-Nov-19 08:01N 35°27' E 139°39'0 0.0
2017-Nov-19 07:30N 35°27' E 139°39'0 0.0
2017-Nov-19 07:01N 35°27' E 139°39'0 0.0
2017-Nov-19 06:30N 35°27' E 139°39'2 3.7
2017-Nov-19 06:00N 35°27' E 139°41'510.0
2017-Nov-19 05:31N 35°29' E 139°47'0 0.3
2017-Nov-19 05:00N 35°29' E 139°47'4 7.7
2017-Nov-19 04:31N 35°27' E 139°43'3 5.9
2017-Nov-19 04:00N 35°27' E 139°39'0 0.0
2017-Nov-19 03:30N 35°27' E 139°39'0 0.0
2017-Nov-19 03:00N 35°27' E 139°39'1 1.5
2017-Nov-19 02:30N 35°27' E 139°40'5 9.2
2017-Nov-19 02:00N 35°30' E 139°44'0 1.0
2017-Nov-19 01:30N 35°30' E 139°45'0 0.5
2017-Nov-19 01:00N 35°30' E 139°45'1 1.6
2017-Nov-19 00:30N 35°30' E 139°46'0 0.3
2017-Nov-19 00:00N 35°30' E 139°46'0 0.0
2017-Nov-18 23:30N 35°30' E 139°46'3 6.7
2017-Nov-18 23:00N 35°29' E 139°42'2 3.8
2017-Nov-18 22:30N 35°27' E 139°41'0 0.3
2017-Nov-18 22:00N 35°27' E 139°41'1 2.9
2017-Nov-18 21:30N 35°26' E 139°42'1 2.0
2017-Nov-18 21:00N 35°27' E 139°41'0 0.3
2017-Nov-18 20:30N 35°26' E 139°41'2 3.1
2017-Nov-18 20:00N 35°27' E 139°39'0 0.3
2017-Nov-18 19:30N 35°27' E 139°39'0 0.0
2017-Nov-18 19:00N 35°27' E 139°39'0 0.0
2017-Nov-18 18:30N 35°27' E 139°39'0 0.0
2017-Nov-18 18:00N 35°27' E 139°39'0 0.0
2017-Nov-18 17:30N 35°27' E 139°39'0 0.0
2017-Nov-18 17:00N 35°27' E 139°39'0 0.0
2017-Nov-18 16:30N 35°27' E 139°39'0 0.0
2017-Nov-18 16:00N 35°27' E 139°39'0 0.0
2017-Nov-18 15:30N 35°27' E 139°39'0 0.0
2017-Nov-18 15:00N 35°27' E 139°39'0 0.0
2017-Nov-18 14:30N 35°27' E 139°39'0 0.0
2017-Nov-18 14:00N 35°27' E 139°39'0 0.0
2017-Nov-18 13:30N 35°27' E 139°39'0 0.0
2017-Nov-18 13:00N 35°27' E 139°39'0 0.0
2017-Nov-18 12:30N 35°27' E 139°39'0 0.0
2017-Nov-18 12:00N 35°27' E 139°39'0 0.0
2017-Nov-18 11:30N 35°27' E 139°39'0 0.0
2017-Nov-18 11:00N 35°27' E 139°39'0 0.0
2017-Nov-18 10:30N 35°27' E 139°39'0 0.0
2017-Nov-18 10:00N 35°27' E 139°39'0 0.0
2017-Nov-18 09:30N 35°27' E 139°39'0 0.0
2017-Nov-18 09:00N 35°27' E 139°39'0 0.0
2017-Nov-18 08:30N 35°27' E 139°39'0 0.0
2017-Nov-18 08:00N 35°27' E 139°39'0 0.0
2017-Nov-18 07:30N 35°27' E 139°39'0 0.0
2017-Nov-18 07:00N 35°27' E 139°39'0 1.0
2017-Nov-18 06:30N 35°27' E 139°40'1 2.9
2017-Nov-18 06:00N 35°28' E 139°39'3 6.6
2017-Nov-18 05:31N 35°26' E 139°42'1 1.9
2017-Nov-18 05:00N 35°27' E 139°42'0 0.0
2017-Nov-18 04:30N 35°27' E 139°42'0 0.7
2017-Nov-18 04:00N 35°28' E 139°42'3 6.8
2017-Nov-18 03:30N 35°29' E 139°46'1 0.9
2017-Nov-18 02:36N 35°29' E 139°47'0 0.6
2017-Nov-18 02:09N 35°29' E 139°47'1 3.6
2017-Nov-18 02:00N 35°28' E 139°46'1 2.9
2017-Nov-18 01:30N 35°27' E 139°46'2 4.0
2017-Nov-18 01:00N 35°29' E 139°46'0 0.0
2017-Nov-18 00:30N 35°29' E 139°46'2 3.4
2017-Nov-18 00:00N 35°31' E 139°46'1 2.7
2017-Nov-17 23:30N 35°30' E 139°45'3 6.8
2017-Nov-17 23:00N 35°28' E 139°41'2 4.6
2017-Nov-17 22:30N 35°27' E 139°39'0 0.0
2017-Nov-17 22:00N 35°27' E 139°39'0 0.0
2017-Nov-17 21:30N 35°27' E 139°39'0 0.0
2017-Nov-17 21:00N 35°27' E 139°39'0 0.0
2017-Nov-17 20:30N 35°27' E 139°39'0 0.0
2017-Nov-17 20:00N 35°27' E 139°39'0 0.0
2017-Nov-17 19:31N 35°27' E 139°39'0 0.0
2017-Nov-17 19:00N 35°27' E 139°39'0 0.0
2017-Nov-17 18:30N 35°27' E 139°39'0 0.0
2017-Nov-17 18:00N 35°27' E 139°39'0 0.0
2017-Nov-17 17:31N 35°27' E 139°39'0 0.0
2017-Nov-17 17:01N 35°27' E 139°39'0 0.0
2017-Nov-17 16:30N 35°27' E 139°39'0 0.0
2017-Nov-17 16:00N 35°27' E 139°39'0 0.0
2017-Nov-17 15:30N 35°27' E 139°39'0 0.0
2017-Nov-17 15:00N 35°27' E 139°39'0 0.0
2017-Nov-17 14:30N 35°27' E 139°39'0 0.0
2017-Nov-17 14:00N 35°27' E 139°39'0 0.0
2017-Nov-17 13:30N 35°27' E 139°39'0 0.0
2017-Nov-17 13:00N 35°27' E 139°39'0 0.0
2017-Nov-17 12:30N 35°27' E 139°39'0 0.0
2017-Nov-17 12:00N 35°27' E 139°39'0 0.0
2017-Nov-17 11:30N 35°27' E 139°39'0 0.0
2017-Nov-17 11:00N 35°27' E 139°39'0 0.0
2017-Nov-17 10:30N 35°27' E 139°39'0 0.0
2017-Nov-17 10:00N 35°27' E 139°39'0 0.0
2017-Nov-17 09:30N 35°27' E 139°39'0 0.0
2017-Nov-17 09:00N 35°27' E 139°39'0 0.0
2017-Nov-17 08:30N 35°27' E 139°39'0 0.0
2017-Nov-17 08:00N 35°27' E 139°39'0 0.0
2017-Nov-17 07:30N 35°27' E 139°39'0 0.0
2017-Nov-17 07:00N 35°27' E 139°39'2 3.7
2017-Nov-17 06:30N 35°25' E 139°41'1 1.1
2017-Nov-17 06:00N 35°25' E 139°41'2 3.6
2017-Nov-17 05:30N 35°27' E 139°41'1 2.7
2017-Nov-17 05:00N 35°27' E 139°39'0 0.0
2017-Nov-17 04:30N 35°27' E 139°39'0 0.0
2017-Nov-17 04:00N 35°27' E 139°39'0 0.0
2017-Nov-17 03:31N 35°27' E 139°39'0 0.0
2017-Nov-17 03:00N 35°27' E 139°39'0 0.0
2017-Nov-17 02:30N 35°27' E 139°39'4 7.1
2017-Nov-17 02:00N 35°29' E 139°42'4 6.9
2017-Nov-17 01:30N 35°31' E 139°46'0 0.0
2017-Nov-17 01:00N 35°31' E 139°46'2 3.3
2017-Nov-17 00:30N 35°30' E 139°47'3 6.3
2017-Nov-17 00:00N 35°27' E 139°47'3 5.4
2017-Nov-16 23:30N 35°27' E 139°43'2 4.2
2017-Nov-16 23:00N 35°29' E 139°43'0 0.2
2017-Nov-16 22:31N 35°29' E 139°43'2 3.2
2017-Nov-16 22:00N 35°28' E 139°42'3 5.5
2017-Nov-16 21:30N 35°27' E 139°46'0 0.5
2017-Nov-16 21:01N 35°27' E 139°46'3 5.9
2017-Nov-16 20:31N 35°27' E 139°42'3 5.4
2017-Nov-16 20:01N 35°27' E 139°39'0 0.0
2017-Nov-16 19:31N 35°27' E 139°39'0 0.0
2017-Nov-16 19:01N 35°27' E 139°39'0 0.0
2017-Nov-16 18:31N 35°27' E 139°39'0 0.0
2017-Nov-16 18:01N 35°27' E 139°39'0 0.0
2017-Nov-16 17:31N 35°27' E 139°39'0 0.0
2017-Nov-16 17:01N 35°27' E 139°39'0 0.0
2017-Nov-16 16:31N 35°27' E 139°39'0 0.0
2017-Nov-16 16:01N 35°27' E 139°39'0 0.0
2017-Nov-16 15:31N 35°27' E 139°39'0 0.0
2017-Nov-16 15:01N 35°27' E 139°39'0 0.0
2017-Nov-16 14:31N 35°27' E 139°39'0 0.0
2017-Nov-16 14:01N 35°27' E 139°39'0 0.0
2017-Nov-16 13:31N 35°27' E 139°39'0 0.0
2017-Nov-16 13:00N 35°27' E 139°39'0 0.0
2017-Nov-16 12:31N 35°27' E 139°39'0 0.0
2017-Nov-16 12:01N 35°27' E 139°39'0 0.0
2017-Nov-16 11:31N 35°27' E 139°39'0 0.0
2017-Nov-16 11:01N 35°27' E 139°39'0 0.0
2017-Nov-16 10:31N 35°27' E 139°39'0 0.0
2017-Nov-16 10:01N 35°27' E 139°39'0 0.2
2017-Nov-16 09:31N 35°27' E 139°39'1 3.0
2017-Nov-16 09:01N 35°26' E 139°41'2 3.4
2017-Nov-16 08:31N 35°26' E 139°43'1 1.7
2017-Nov-16 08:01N 35°25' E 139°43'1 2.9
2017-Nov-16 07:31N 35°26' E 139°42'0 0.0
2017-Nov-16 07:01N 35°26' E 139°42'0 0.0
2017-Nov-16 06:31N 35°26' E 139°42'0 0.0
2017-Nov-16 06:00N 35°26' E 139°42'1 1.8
2017-Nov-16 05:31N 35°27' E 139°41'0 0.0
2017-Nov-16 05:01N 35°27' E 139°41'2 3.6
2017-Nov-16 04:31N 35°26' E 139°43'1 1.1
2017-Nov-16 04:01N 35°25' E 139°43'3 6.8
2017-Nov-16 03:31N 35°27' E 139°39'0 0.0
2017-Nov-16 03:01N 35°27' E 139°39'0 0.0
2017-Nov-16 02:31N 35°27' E 139°39'2 3.0
2017-Nov-16 02:01N 35°28' E 139°39'0 0.7
2017-Nov-16 01:31N 35°28' E 139°40'2 4.4
2017-Nov-16 01:00N 35°27' E 139°42'2 3.9
2017-Nov-16 00:31N 35°25' E 139°43'3 6.4
2017-Nov-16 00:01N 35°27' E 139°40'1 1.8
2017-Nov-15 23:31N 35°27' E 139°39'0 0.0
2017-Nov-15 23:01N 35°27' E 139°39'0 0.0
2017-Nov-15 22:31N 35°27' E 139°39'0 0.0
2017-Nov-15 22:01N 35°27' E 139°39'0 0.0
2017-Nov-15 21:31N 35°27' E 139°39'0 0.0
2017-Nov-15 21:01N 35°27' E 139°39'0 0.0
2017-Nov-15 20:31N 35°27' E 139°39'0 0.0
2017-Nov-15 20:01N 35°27' E 139°39'0 0.0
2017-Nov-15 19:31N 35°27' E 139°39'0 0.0
2017-Nov-15 19:01N 35°27' E 139°39'0 0.0
2017-Nov-15 18:31N 35°27' E 139°39'0 0.0
2017-Nov-15 18:01N 35°27' E 139°39'0 0.0
2017-Nov-15 17:30N 35°27' E 139°39'0 0.0
2017-Nov-15 17:01N 35°27' E 139°39'0 0.0
2017-Nov-15 16:31N 35°27' E 139°39'0 0.0
2017-Nov-15 16:01N 35°27' E 139°39'0 0.0
2017-Nov-15 15:31N 35°27' E 139°39'0 0.0
2017-Nov-15 15:01N 35°27' E 139°39'0 0.0
2017-Nov-15 14:31N 35°27' E 139°39'0 0.0
2017-Nov-15 14:01N 35°27' E 139°39'0 0.0
2017-Nov-15 13:31N 35°27' E 139°39'0 0.0
2017-Nov-15 13:01N 35°27' E 139°39'0 0.0
2017-Nov-15 12:31N 35°27' E 139°39'0 0.0
2017-Nov-15 12:00N 35°27' E 139°39'0 0.0
2017-Nov-15 11:31N 35°27' E 139°39'0 0.0
2017-Nov-15 11:00N 35°27' E 139°39'0 0.0
2017-Nov-15 10:31N 35°27' E 139°39'0 0.0
2017-Nov-15 10:01N 35°27' E 139°39'0 0.0
2017-Nov-15 09:30N 35°27' E 139°39'0 0.0
2017-Nov-15 09:01N 35°27' E 139°39'0 0.0
2017-Nov-15 08:31N 35°27' E 139°39'0 0.0
2017-Nov-15 08:01N 35°27' E 139°39'0 0.0
2017-Nov-15 07:31N 35°27' E 139°39'0 0.0
2017-Nov-15 07:00N 35°27' E 139°39'0 0.0
2017-Nov-15 06:31N 35°27' E 139°39'0 0.0
2017-Nov-15 06:01N 35°27' E 139°39'0 0.0
2017-Nov-15 05:31N 35°27' E 139°39'0 0.0
2017-Nov-15 05:01N 35°27' E 139°39'0 0.0
2017-Nov-15 04:31N 35°27' E 139°39'0 0.0
2017-Nov-15 04:01N 35°27' E 139°39'0 0.0
2017-Nov-15 03:30N 35°27' E 139°39'0 0.0
2017-Nov-15 03:01N 35°27' E 139°39'0 0.0
2017-Nov-15 02:31N 35°27' E 139°39'0 0.0
2017-Nov-15 02:01N 35°27' E 139°39'0 0.0
2017-Nov-15 01:30N 35°27' E 139°39'0 0.0
2017-Nov-15 01:01N 35°27' E 139°39'0 0.0
2017-Nov-15 00:31N 35°27' E 139°39'0 0.0
2017-Nov-15 00:01N 35°27' E 139°39'1 2.3
2017-Nov-14 23:31N 35°27' E 139°41'1 1.4
2017-Nov-14 23:01N 35°27' E 139°41'1 2.9
2017-Nov-14 22:31N 35°26' E 139°43'2 4.1
2017-Nov-14 22:00N 35°26' E 139°45'4 7.9
2017-Nov-14 21:31N 35°28' E 139°41'0 0.0
2017-Nov-14 21:01N 35°28' E 139°41'0 0.6
2017-Nov-14 20:31N 35°27' E 139°40'0 0.6
2017-Nov-14 20:01N 35°28' E 139°41'0 0.0
2017-Nov-14 19:30N 35°28' E 139°41'0 0.0
2017-Nov-14 19:01N 35°28' E 139°41'0 0.0
2017-Nov-14 18:31N 35°28' E 139°41'0 0.0
2017-Nov-14 18:01N 35°28' E 139°41'0 0.0
2017-Nov-14 17:31N 35°28' E 139°41'0 0.0
2017-Nov-14 17:00N 35°28' E 139°41'4 7.4
2017-Nov-14 16:30N 35°29' E 139°45'2 3.2
2017-Nov-14 16:00N 35°30' E 139°46'0 0.5
2017-Nov-14 15:22N 35°30' E 139°47'0 0.0
2017-Nov-14 15:00N 35°30' E 139°47'0 0.0
2017-Nov-14 14:25N 35°30' E 139°47'0 0.0
2017-Nov-14 13:53N 35°30' E 139°47'0 0.0
2017-Nov-14 13:30N 35°30' E 139°47'2 4.5
2017-Nov-14 13:00N 35°30' E 139°44'0 0.3
2017-Nov-14 12:30N 35°30' E 139°44'1 1.4
2017-Nov-14 12:00N 35°29' E 139°43'0 0.0
2017-Nov-14 11:30N 35°29' E 139°43'0 0.0
2017-Nov-14 11:00N 35°29' E 139°43'1 1.4
2017-Nov-14 10:30N 35°29' E 139°42'3 5.5
2017-Nov-14 10:00N 35°27' E 139°41'0 0.3
2017-Nov-14 09:30N 35°27' E 139°41'1 3.0
2017-Nov-14 09:00N 35°27' E 139°39'0 0.0
2017-Nov-14 08:30N 35°27' E 139°39'0 0.0
2017-Nov-14 08:00N 35°27' E 139°39'2 4.3
2017-Nov-14 07:31N 35°28' E 139°42'0 0.6
2017-Nov-14 07:00N 35°28' E 139°42'2 4.5
2017-Nov-14 06:30N 35°27' E 139°39'0 0.0
2017-Nov-14 06:00N 35°27' E 139°39'0 0.0
2017-Nov-14 05:30N 35°27' E 139°39'0 0.0
2017-Nov-14 05:00N 35°27' E 139°39'0 0.0
2017-Nov-14 04:30N 35°27' E 139°39'0 0.0
2017-Nov-14 04:00N 35°27' E 139°39'0 0.0
2017-Nov-14 03:30N 35°27' E 139°39'0 0.0
2017-Nov-14 03:00N 35°27' E 139°39'0 0.0
2017-Nov-14 02:30N 35°27' E 139°39'  

Dump ship's entire track history